Time;durP1;ratioP1;P1;durP2;ratioP2;P2;SDS_P1;SDS_P2;PMS_P1;PMS_P2;Temp;Humidity;BMP_temperature;BMP_pressure;BME280_temperature;BME280_humidity;BME280_pressure;Samples;Min_cycle;Max_cycle;Signal;HPM_P1;HPM_P2
2022/09/29 00:01:05;;;;;;;6.50;3.67;;;;;;;6.31;100.00;98555.34;5018137;28;20231;-69
2022/09/29 00:03:30;;;;;;;5.17;4.20;;;;;;;6.26;100.00;98559.94;5024824;28;20204;-68
2022/09/29 00:05:56;;;;;;;4.07;3.50;;;;;;;6.30;100.00;98564.75;5011288;28;20197;-68
2022/09/29 00:08:24;;;;;;;5.40;3.70;;;;;;;6.34;100.00;98562.84;5013996;28;20207;-66
2022/09/29 00:10:49;;;;;;;5.40;3.43;;;;;;;6.44;100.00;98561.34;5002056;28;20264;-67
2022/09/29 00:13:15;;;;;;;5.87;4.10;;;;;;;6.46;100.00;98556.97;5009717;28;20236;-67
2022/09/29 00:15:41;;;;;;;4.53;3.30;;;;;;;6.47;100.00;98560.34;5008796;28;20197;-66
2022/09/29 00:18:08;;;;;;;5.83;3.57;;;;;;;6.43;100.00;98559.72;5008618;28;20194;-66
2022/09/29 00:20:34;;;;;;;3.97;3.57;;;;;;;6.46;100.00;98564.63;5003091;28;20646;-66
2022/09/29 00:22:59;;;;;;;4.73;3.80;;;;;;;6.60;100.00;98557.84;5022000;28;20190;-66
2022/09/29 00:25:25;;;;;;;6.67;4.30;;;;;;;6.37;100.00;98560.09;5010022;28;20197;-66
2022/09/29 00:27:50;;;;;;;4.57;3.93;;;;;;;6.54;100.00;98558.25;5010195;28;20212;-67
2022/09/29 00:30:16;;;;;;;5.13;3.53;;;;;;;6.54;100.00;98559.03;5000442;28;20184;-66
2022/09/29 00:32:41;;;;;;;7.20;4.10;;;;;;;6.46;100.00;98556.13;5008001;28;20242;-66
2022/09/29 00:35:09;;;;;;;3.93;3.50;;;;;;;6.33;100.00;98557.84;5006243;28;20228;-67
2022/09/29 00:37:34;;;;;;;4.70;3.37;;;;;;;6.28;100.00;98561.47;5008493;28;20211;-66
2022/09/29 00:40:00;;;;;;;4.53;4.00;;;;;;;6.29;100.00;98555.47;5018583;28;20199;-66
2022/09/29 00:42:26;;;;;;;8.67;4.27;;;;;;;6.28;100.00;98553.00;5022151;28;20285;-67
2022/09/29 00:45:15;;;;;;;4.63;3.53;;;;;;;6.19;100.00;98551.00;5026058;28;20186;-66
2022/09/29 00:47:43;;;;;;;6.97;3.97;;;;;;;6.13;100.00;98559.88;5026959;28;20297;-67
2022/09/29 00:50:26;;;;;;;6.93;4.13;;;;;;;6.05;100.00;98551.84;5003839;28;20179;-66
2022/09/29 00:52:57;;;;;;;5.17;4.17;;;;;;;6.07;100.00;98560.25;5011408;28;20199;-66
2022/09/29 00:55:28;;;;;;;6.20;3.93;;;;;;;6.07;100.00;98553.41;5022864;28;20221;-65
2022/09/29 00:58:01;;;;;;;4.63;4.20;;;;;;;5.89;100.00;98547.66;5025635;28;20195;-66
2022/09/29 01:00:26;;;;;;;5.30;3.80;;;;;;;5.74;100.00;98546.84;5009112;28;20666;-67
2022/09/29 01:02:59;;;;;;;5.10;4.00;;;;;;;5.81;100.00;98549.84;5025286;28;20182;-65
2022/09/29 01:05:31;;;;;;;6.53;4.23;;;;;;;5.75;100.00;98547.66;5020672;28;20182;-66
2022/09/29 01:08:01;;;;;;;4.43;4.03;;;;;;;5.66;100.00;98543.91;5011473;28;20662;-66
2022/09/29 01:10:27;;;;;;;5.60;5.00;;;;;;;5.66;100.00;98552.38;5015803;28;20230;-66
2022/09/29 01:12:52;;;;;;;6.80;4.30;;;;;;;5.64;100.00;98540.63;5038167;28;20758;-66
2022/09/29 01:15:20;;;;;;;4.73;4.23;;;;;;;5.62;100.00;98545.00;5021780;28;20227;-66
2022/09/29 01:17:47;;;;;;;5.57;4.60;;;;;;;5.48;100.00;98544.09;5020643;28;20273;-67
2022/09/29 01:20:21;;;;;;;6.13;4.53;;;;;;;5.36;100.00;98536.31;5009718;28;20227;-67
2022/09/29 01:23:31;;;;;;;7.90;4.60;;;;;;;5.16;100.00;98544.22;5032689;28;20194;-67
2022/09/29 01:26:20;;;;;;;13.00;4.70;;;;;;;5.10;100.00;98547.13;5002840;28;20194;-77
2022/09/29 01:29:13;;;;;;;4.90;4.37;;;;;;;5.21;100.00;98546.50;5016160;28;20207;-68
2022/09/29 01:32:05;;;;;;;4.97;3.97;;;;;;;5.20;100.00;98552.50;5007734;28;20297;-72
2022/09/29 01:34:53;;;;;;;6.63;4.37;;;;;;;5.24;100.00;98550.63;5011977;28;20234;-67
2022/09/29 01:37:45;;;;;;;5.53;4.10;;;;;;;5.24;100.00;98545.50;5032040;28;20182;-67
2022/09/29 01:40:15;;;;;;;10.20;4.77;;;;;;;5.22;100.00;98549.88;5016989;28;20191;-68
2022/09/29 01:43:02;;;;;;;5.50;4.53;;;;;;;5.14;100.00;98542.66;5013148;28;20190;-67
2022/09/29 01:45:32;;;;;;;7.47;4.73;;;;;;;5.20;100.00;98551.66;5021392;28;20186;-66
2022/09/29 01:48:04;;;;;;;6.27;4.80;;;;;;;5.14;100.00;98552.84;5031674;28;20225;-67
2022/09/29 01:50:37;;;;;;;8.53;5.07;;;;;;;5.15;100.00;98552.78;5007389;28;20288;-66
2022/09/29 01:53:14;;;;;;;6.93;5.13;;;;;;;5.07;100.00;98554.91;5011760;28;20191;-66
2022/09/29 01:55:51;;;;;;;6.93;4.33;;;;;;;5.05;100.00;98559.31;5014120;28;20190;-66
2022/09/29 01:58:26;;;;;;;7.07;4.87;;;;;;;5.03;100.00;98561.09;5028788;28;20186;-67
2022/09/29 02:00:55;;;;;;;6.60;5.33;;;;;;;5.09;100.00;98550.56;5011470;28;20696;-66
2022/09/29 02:03:43;;;;;;;5.90;4.97;;;;;;;4.98;100.00;98560.56;5014655;28;20273;-67
2022/09/29 02:06:16;;;;;;;6.87;5.30;;;;;;;4.94;100.00;98557.34;5020461;28;20186;-66
2022/09/29 02:08:47;;;;;;;5.90;5.17;;;;;;;4.97;100.00;98562.28;5019987;28;20209;-66
2022/09/29 02:11:13;;;;;;;7.17;5.30;;;;;;;5.00;100.00;98557.00;5012005;28;20683;-65
2022/09/29 02:13:44;;;;;;;5.73;4.83;;;;;;;5.00;100.00;98561.28;5011584;28;20189;-67
2022/09/29 02:16:16;;;;;;;6.57;4.80;;;;;;;5.03;100.00;98560.31;5024052;28;20634;-66
2022/09/29 02:18:49;;;;;;;9.73;4.97;;;;;;;4.97;100.00;98561.44;5028508;28;20214;-66
2022/09/29 02:21:14;;;;;;;6.80;5.40;;;;;;;4.96;100.00;98565.75;5011983;28;20226;-66
2022/09/29 02:23:40;;;;;;;6.13;5.13;;;;;;;4.78;100.00;98562.47;5011586;28;20254;-67
2022/09/29 02:26:05;;;;;;;5.87;5.13;;;;;;;4.89;100.00;98563.59;5028905;28;20186;-66
2022/09/29 02:28:31;;;;;;;5.37;4.87;;;;;;;4.90;100.00;98566.09;5019885;28;20297;-67
2022/09/29 02:30:56;;;;;;;6.23;4.73;;;;;;;4.92;100.00;98581.28;5008606;28;20227;-67
2022/09/29 02:33:23;;;;;;;5.83;5.13;;;;;;;4.96;100.00;98575.09;5020055;28;20598;-67
2022/09/29 02:36:05;;;;;;;6.13;5.37;;;;;;;4.83;100.00;98570.69;5024287;28;20186;-66
2022/09/29 02:38:42;;;;;;;4.50;4.10;;;;;;;4.71;100.00;98573.09;5027322;28;20633;-67
2022/09/29 02:41:33;;;;;;;5.07;4.53;;;;;;;4.73;100.00;98578.94;5005378;28;20296;-66
2022/09/29 02:44:24;;;;;;;5.97;5.23;;;;;;;4.71;100.00;98579.00;5012174;28;20222;-67
2022/09/29 02:47:06;;;;;;;7.77;4.70;;;;;;;4.66;100.00;98573.34;5015234;28;20237;-66
2022/09/29 02:49:57;;;;;;;6.50;5.10;;;;;;;4.65;100.00;98572.53;5025774;28;20292;-67
2022/09/29 02:52:22;;;;;;;6.57;4.87;;;;;;;4.69;100.00;98571.44;5020349;28;20245;-67
2022/09/29 02:55:14;;;;;;;6.40;5.00;;;;;;;4.60;100.00;98574.50;5015938;28;20212;-67
2022/09/29 02:58:02;;;;;;;7.57;5.07;;;;;;;4.55;100.00;98581.56;5024857;28;20708;-68
2022/09/29 03:00:27;;;;;;;7.57;5.40;;;;;;;4.63;100.00;98581.16;5004531;28;20689;-67
2022/09/29 03:02:53;;;;;;;9.83;5.10;;;;;;;4.60;100.00;98581.31;4995992;28;20194;-67
2022/09/29 03:05:21;;;;;;;5.70;4.97;;;;;;;4.55;100.00;98578.19;5017374;28;20186;-67
2022/09/29 03:07:46;;;;;;;6.57;5.37;;;;;;;4.51;100.00;98575.84;5035135;28;20214;-67
2022/09/29 03:10:14;;;;;;;8.43;5.40;;;;;;;4.45;100.00;98571.06;5006948;28;20271;-66
2022/09/29 03:12:40;;;;;;;8.23;5.87;;;;;;;4.48;100.00;98575.19;5004204;28;20650;-66
2022/09/29 03:15:06;;;;;;;9.80;6.43;;;;;;;4.46;100.00;98569.34;5001374;28;20190;-67
2022/09/29 03:17:32;;;;;;;11.77;5.20;;;;;;;4.48;100.00;98572.63;5027456;28;20228;-67
2022/09/29 03:19:57;;;;;;;8.20;5.67;;;;;;;4.46;100.00;98570.16;5026548;28;20553;-71
2022/09/29 03:22:23;;;;;;;7.13;5.83;;;;;;;4.35;100.00;98572.44;5007152;28;20237;-66
2022/09/29 03:24:49;;;;;;;6.30;5.03;;;;;;;4.39;100.00;98575.66;5016779;28;20200;-66
2022/09/29 03:27:14;;;;;;;8.30;5.67;;;;;;;4.32;100.00;98572.63;5014450;28;20202;-66
2022/09/29 03:29:39;;;;;;;7.73;5.90;;;;;;;4.35;100.00;98575.00;5006220;28;20314;-66
2022/09/29 03:32:05;;;;;;;11.20;5.90;;;;;;;4.39;100.00;98584.13;4967610;28;20302;-66
2022/09/29 03:34:31;;;;;;;10.13;5.93;;;;;;;4.18;100.00;98579.25;5017311;28;20684;-66
2022/09/29 03:36:57;;;;;;;5.97;5.37;;;;;;;4.34;100.00;98579.28;5017837;28;20191;-67
2022/09/29 03:39:23;;;;;;;6.90;5.53;;;;;;;4.34;100.00;98583.53;5027532;28;20193;-66
2022/09/29 03:41:48;;;;;;;6.50;5.57;;;;;;;4.22;100.00;98584.19;5014546;28;20316;-66
2022/09/29 03:44:14;;;;;;;7.50;6.20;;;;;;;4.30;100.00;98584.59;5015460;28;20298;-66
2022/09/29 03:46:39;;;;;;;8.43;5.53;;;;;;;4.32;100.00;98590.44;5021348;28;20259;-69
2022/09/29 03:49:05;;;;;;;5.80;5.20;;;;;;;4.27;100.00;98572.06;5016169;28;20257;-66
2022/09/29 03:51:30;;;;;;;7.27;5.27;;;;;;;4.36;100.00;98581.72;5017320;28;20241;-66
2022/09/29 03:53:55;;;;;;;8.37;5.53;;;;;;;4.10;100.00;98589.00;5028361;28;20193;-67
2022/09/29 03:56:21;;;;;;;5.40;4.43;;;;;;;4.09;100.00;98589.09;5013477;28;20184;-68
2022/09/29 03:58:46;;;;;;;7.73;5.37;;;;;;;4.22;100.00;98595.19;5018346;28;20200;-70
2022/09/29 04:01:11;;;;;;;6.93;5.40;;;;;;;4.28;100.00;98605.06;5019606;28;20275;-66
2022/09/29 04:03:36;;;;;;;5.90;4.83;;;;;;;4.30;100.00;98599.88;5017746;28;20630;-67
2022/09/29 04:06:02;;;;;;;5.60;4.97;;;;;;;4.27;100.00;98602.59;5007823;28;20181;-66
2022/09/29 04:08:28;;;;;;;7.33;4.73;;;;;;;4.18;100.00;98603.88;5015945;28;20549;-66
2022/09/29 04:10:53;;;;;;;6.10;5.03;;;;;;;4.16;100.00;98598.88;5016098;28;20768;-66
2022/09/29 04:13:20;;;;;;;6.77;4.87;;;;;;;4.19;100.00;98598.72;5020274;28;20526;-66
2022/09/29 04:15:46;;;;;;;5.80;5.20;;;;;;;4.16;100.00;98598.06;5012671;28;20543;-66
2022/09/29 04:18:11;;;;;;;5.63;5.13;;;;;;;4.19;100.00;98601.28;5021634;28;20193;-67
2022/09/29 04:20:37;;;;;;;6.47;5.40;;;;;;;4.11;100.00;98602.56;5019252;28;20226;-67
2022/09/29 04:23:03;;;;;;;6.83;5.17;;;;;;;4.06;100.00;98597.72;5029796;28;20190;-66
2022/09/29 04:25:28;;;;;;;13.30;6.73;;;;;;;4.12;100.00;98586.38;5023016;28;20194;-66
2022/09/29 04:27:54;;;;;;;7.33;5.13;;;;;;;4.05;100.00;98588.44;5006861;28;20202;-67
2022/09/29 04:30:19;;;;;;;6.23;5.13;;;;;;;4.12;100.00;98597.41;5014465;28;20185;-66
2022/09/29 04:32:44;;;;;;;7.20;5.07;;;;;;;4.17;100.00;98590.34;5017115;28;20272;-66
2022/09/29 04:35:10;;;;;;;7.90;5.37;;;;;;;4.11;100.00;98597.50;5016239;28;20194;-66
2022/09/29 04:37:35;;;;;;;7.00;5.53;;;;;;;4.05;100.00;98598.63;5011557;28;20284;-66
2022/09/29 04:40:02;;;;;;;6.80;5.30;;;;;;;4.08;100.00;98602.72;5028913;28;20205;-66
2022/09/29 04:42:28;;;;;;;7.03;5.03;;;;;;;4.05;100.00;98606.25;4989722;28;20216;-67
2022/09/29 04:44:53;;;;;;;5.27;4.73;;;;;;;4.01;100.00;98605.59;5023943;28;20281;-67
2022/09/29 04:47:18;;;;;;;8.93;5.10;;;;;;;3.87;100.00;98601.22;5023630;28;20310;-67
2022/09/29 04:49:44;;;;;;;5.60;5.00;;;;;;;3.95;100.00;98605.91;5019182;28;20197;-67
2022/09/29 04:52:13;;;;;;;8.50;5.60;;;;;;;3.96;100.00;98610.09;5021218;28;20222;-66
2022/09/29 04:54:39;;;;;;;6.47;5.27;;;;;;;3.95;100.00;98610.97;5018286;28;20203;-66
2022/09/29 04:57:05;;;;;;;8.57;5.40;;;;;;;3.92;100.00;98610.31;5022332;28;20648;-67
2022/09/29 04:59:30;;;;;;;8.47;5.77;;;;;;;3.92;100.00;98602.69;5016987;28;20273;-67
2022/09/29 05:01:56;;;;;;;7.17;5.73;;;;;;;3.86;100.00;98609.72;5031385;28;20319;-67
2022/09/29 05:04:21;;;;;;;6.47;5.80;;;;;;;3.83;100.00;98607.34;5027497;28;20278;-69
2022/09/29 05:06:46;;;;;;;8.80;6.20;;;;;;;3.84;100.00;98608.16;5013781;28;20638;-68
2022/09/29 05:09:12;;;;;;;9.20;6.50;;;;;;;3.87;100.00;98608.84;5014945;28;20260;-67
2022/09/29 05:11:37;;;;;;;10.07;6.97;;;;;;;3.89;100.00;98616.38;5007317;28;20290;-67
2022/09/29 05:14:03;;;;;;;13.47;8.00;;;;;;;4.04;100.00;98617.31;5013635;28;20189;-66
2022/09/29 05:16:29;;;;;;;17.20;8.17;;;;;;;3.93;100.00;98619.59;5019374;28;20187;-66
2022/09/29 05:18:55;;;;;;;14.10;7.80;;;;;;;3.97;100.00;98609.19;5027609;28;20174;-67
2022/09/29 05:21:20;;;;;;;12.30;7.77;;;;;;;3.62;100.00;98609.25;5022852;28;20259;-70
2022/09/29 05:23:45;;;;;;;12.50;8.13;;;;;;;3.79;100.00;98610.94;5015865;28;20545;-66
2022/09/29 05:26:12;;;;;;;12.33;7.90;;;;;;;3.72;100.00;98614.69;5008694;28;20561;-66
2022/09/29 05:28:41;;;;;;;11.83;7.40;;;;;;;3.70;100.00;98619.84;5031950;28;20182;-67
2022/09/29 05:31:07;;;;;;;10.03;6.93;;;;;;;3.81;100.00;98615.97;5026843;28;20327;-67
2022/09/29 05:33:34;;;;;;;10.63;9.00;;;;;;;3.79;100.00;98621.13;5025583;28;20213;-67
2022/09/29 05:35:59;;;;;;;10.73;9.30;;;;;;;3.79;100.00;98638.91;5024868;28;20210;-66
2022/09/29 05:38:25;;;;;;;9.83;8.83;;;;;;;3.79;100.00;98631.28;5027548;28;20638;-66
2022/09/29 05:40:51;;;;;;;10.20;7.77;;;;;;;3.67;100.00;98642.91;5016881;28;20233;-68
2022/09/29 05:43:17;;;;;;;12.13;8.40;;;;;;;3.81;100.00;98646.50;5020602;28;20217;-68
2022/09/29 05:45:43;;;;;;;14.93;9.00;;;;;;;3.79;100.00;98653.38;5022553;28;20269;-68
2022/09/29 05:48:08;;;;;;;8.53;7.60;;;;;;;4.01;100.00;98648.84;5027957;28;20738;-67
2022/09/29 05:50:43;;;;;;;8.03;7.13;;;;;;;4.11;100.00;98646.66;5015612;28;20257;-70
2022/09/29 05:53:09;;;;;;;7.47;6.37;;;;;;;4.11;100.00;98644.09;5033510;28;20232;-66
2022/09/29 05:55:36;;;;;;;7.60;6.90;;;;;;;4.19;100.00;98643.69;5019018;28;20241;-66
2022/09/29 05:58:01;;;;;;;9.57;6.80;;;;;;;4.34;100.00;98645.47;5012966;28;20193;-66
2022/09/29 06:00:27;;;;;;;11.10;6.87;;;;;;;4.50;100.00;98650.56;4998836;28;20355;-69
2022/09/29 06:02:52;;;;;;;12.27;7.40;;;;;;;4.64;100.00;98646.44;5026879;28;20638;-67
2022/09/29 06:05:17;;;;;;;8.00;6.40;;;;;;;4.76;100.00;98650.91;5010577;28;20204;-67
2022/09/29 06:07:42;;;;;;;9.23;6.10;;;;;;;4.81;100.00;98648.09;5012848;28;20265;-66
2022/09/29 06:10:08;;;;;;;6.93;6.23;;;;;;;4.85;100.00;98645.31;5003620;28;20622;-66
2022/09/29 06:12:37;;;;;;;8.80;7.10;;;;;;;5.05;100.00;98647.66;5027813;28;20190;-66
2022/09/29 06:15:04;;;;;;;15.33;7.53;;;;;;;5.15;100.00;98651.38;5012939;28;20187;-66
2022/09/29 06:17:29;;;;;;;7.33;5.57;;;;;;;5.33;100.00;98657.16;5022714;28;20629;-65
2022/09/29 06:19:54;;;;;;;7.73;5.57;;;;;;;5.59;100.00;98648.03;5020089;28;20187;-65
2022/09/29 06:22:20;;;;;;;5.53;5.03;;;;;;;5.73;100.00;98654.06;5006099;28;20214;-65
2022/09/29 06:24:45;;;;;;;8.87;5.43;;;;;;;6.21;100.00;98647.03;5021734;28;20181;-68
2022/09/29 06:27:10;;;;;;;5.23;4.83;;;;;;;6.44;100.00;98647.38;5012707;28;20198;-66
2022/09/29 06:29:35;;;;;;;6.37;4.63;;;;;;;6.52;100.00;98657.94;5014080;28;20207;-66
2022/09/29 06:32:01;;;;;;;4.90;4.40;;;;;;;6.58;100.00;98659.31;5005550;28;20569;-66
2022/09/29 06:34:27;;;;;;;7.83;5.20;;;;;;;6.61;100.00;98659.94;5013365;28;20328;-66
2022/09/29 06:39:36;;;;;;;5.70;5.20;;;;;;;6.63;100.00;98658.09;5027092;28;20199;-67
2022/09/29 06:42:02;;;;;;;8.13;5.73;;;;;;;6.84;100.00;98654.34;5017671;28;20226;-67
2022/09/29 06:44:29;;;;;;;5.10;4.60;;;;;;;6.92;100.00;98655.50;5014995;28;20215;-67
2022/09/29 06:46:55;;;;;;;6.37;5.37;;;;;;;6.91;100.00;98660.72;5026732;28;20224;-66
2022/09/29 06:49:21;;;;;;;7.40;5.60;;;;;;;6.86;100.00;98653.31;5017521;28;20205;-66
2022/09/29 06:51:47;;;;;;;9.40;5.60;;;;;;;7.01;100.00;98659.22;5030877;28;20227;-68
2022/09/29 06:54:14;;;;;;;7.43;5.40;;;;;;;7.08;100.00;98662.19;5011945;28;20668;-67
2022/09/29 06:56:40;;;;;;;7.03;5.20;;;;;;;6.96;100.00;98668.91;5029673;28;20617;-67
2022/09/29 06:59:05;;;;;;;8.70;5.07;;;;;;;7.05;100.00;98670.06;5018445;28;20184;-67
2022/09/29 07:01:30;;;;;;;7.07;5.30;;;;;;;7.07;100.00;98676.72;4997792;28;20653;-67
2022/09/29 07:03:56;;;;;;;9.00;5.37;;;;;;;7.34;100.00;98675.88;5016670;28;20204;-75
2022/09/29 07:06:21;;;;;;;10.00;4.93;;;;;;;7.86;100.00;98664.00;5015547;28;20198;-69
2022/09/29 07:08:46;;;;;;;7.87;5.20;;;;;;;8.08;100.00;98667.69;5011693;28;20206;-66
2022/09/29 07:11:12;;;;;;;6.97;5.00;;;;;;;8.07;100.00;98674.56;5024265;28;20324;-70
2022/09/29 07:13:37;;;;;;;7.57;4.70;;;;;;;7.46;100.00;98679.41;5022005;28;20224;-68
2022/09/29 07:16:08;;;;;;;8.93;5.13;;;;;;;7.62;100.00;98678.41;5011598;28;20701;-68
2022/09/29 07:18:35;;;;;;;6.40;5.00;;;;;;;7.83;100.00;98678.75;5020050;28;20573;-67
2022/09/29 07:21:00;;;;;;;6.40;5.33;;;;;;;8.11;100.00;98680.28;5002088;28;20281;-67
2022/09/29 07:23:26;;;;;;;7.03;5.00;;;;;;;8.36;100.00;98673.50;5017580;28;20233;-67
2022/09/29 07:25:51;;;;;;;7.37;4.90;;;;;;;8.70;100.00;98669.44;5021529;28;20649;-67
2022/09/29 07:28:16;;;;;;;13.57;5.00;;;;;;;9.09;100.00;98674.47;5012451;28;20210;-68
2022/09/29 07:30:42;;;;;;;12.00;4.97;;;;;;;10.11;100.00;98673.91;4974811;28;20303;-68
2022/09/29 07:33:07;;;;;;;8.23;5.70;;;;;;;10.39;100.00;98671.84;4987498;28;20207;-67
2022/09/29 07:35:32;;;;;;;7.43;6.30;;;;;;;10.11;100.00;98676.47;5011787;28;20301;-67
2022/09/29 07:37:58;;;;;;;15.53;7.17;;;;;;;9.76;100.00;98679.94;5011489;28;20199;-67
2022/09/29 07:40:23;;;;;;;12.57;7.57;;;;;;;9.69;100.00;98682.16;5001386;28;20232;-67
2022/09/29 07:42:49;;;;;;;14.63;9.53;;;;;;;9.37;100.00;98680.16;4998939;28;20226;-67
2022/09/29 07:45:16;;;;;;;14.00;8.83;;;;;;;9.44;100.00;98681.38;5010511;28;20202;-67
2022/09/29 07:47:41;;;;;;;10.80;8.33;;;;;;;9.39;100.00;98685.19;5008324;28;20226;-67
2022/09/29 07:50:07;;;;;;;13.23;8.47;;;;;;;9.43;100.00;98690.00;5002079;28;20174;-71
2022/09/29 07:52:32;;;;;;;12.23;8.60;;;;;;;9.67;100.00;98687.41;5004727;28;20294;-68
2022/09/29 07:54:57;;;;;;;12.67;9.50;;;;;;;10.11;100.00;98682.44;5010202;28;20650;-63
2022/09/29 07:57:23;;;;;;;15.53;10.87;;;;;;;10.54;100.00;98686.09;5010774;28;20278;-62
2022/09/29 07:59:48;;;;;;;14.43;9.97;;;;;;;10.98;100.00;98673.28;5012561;28;20653;-63
2022/09/29 08:02:14;;;;;;;16.50;10.87;;;;;;;11.08;100.00;98676.75;5015440;28;20305;-62
2022/09/29 08:04:39;;;;;;;14.00;10.17;;;;;;;11.81;100.00;98680.41;5013239;28;20549;-62
2022/09/29 08:07:04;;;;;;;18.93;10.37;;;;;;;11.76;100.00;98680.78;5010284;28;20324;-61
2022/09/29 08:09:29;;;;;;;15.27;10.30;;;;;;;10.95;100.00;98694.94;5014172;28;20197;-61
2022/09/29 08:11:55;;;;;;;16.20;12.60;;;;;;;10.63;100.00;98693.09;5013849;28;20225;-63
2022/09/29 08:14:21;;;;;;;14.40;11.93;;;;;;;10.63;100.00;98687.97;5015176;28;20666;-62
2022/09/29 08:16:46;;;;;;;16.90;12.40;;;;;;;10.16;100.00;98706.03;5006244;28;20178;-62
2022/09/29 08:19:11;;;;;;;14.83;12.13;;;;;;;9.61;100.00;98708.38;5010658;28;20190;-63
2022/09/29 08:21:37;;;;;;;17.00;12.13;;;;;;;9.44;100.00;98708.75;5012242;28;20316;-66
2022/09/29 08:24:04;;;;;;;15.23;11.50;;;;;;;9.91;100.00;98706.22;5007982;28;20185;-66
2022/09/29 08:26:31;;;;;;;17.00;12.57;;;;;;;9.73;100.00;98711.78;5010046;28;20205;-64
2022/09/29 08:28:57;;;;;;;14.80;12.03;;;;;;;9.80;100.00;98718.13;5009790;28;20206;-64
2022/09/29 08:31:22;;;;;;;14.90;11.20;;;;;;;10.59;100.00;98714.03;5001710;28;20294;-65
2022/09/29 08:33:50;;;;;;;14.53;11.80;;;;;;;10.50;100.00;98720.69;5015598;28;20221;-63
2022/09/29 08:36:16;;;;;;;13.97;12.43;;;;;;;10.56;100.00;98722.00;5010507;28;20562;-69
2022/09/29 08:38:43;;;;;;;15.27;11.33;;;;;;;10.12;100.00;98721.78;5039317;28;20190;-68
2022/09/29 08:41:33;;;;;;;15.93;12.10;;;;;;;10.24;100.00;98725.22;5009442;28;20217;-68
2022/09/29 08:44:03;;;;;;;17.30;11.70;;;;;;;11.23;100.00;98718.47;5015094;28;20236;-71
2022/09/29 08:46:38;;;;;;;14.30;10.57;;;;;;;11.60;100.00;98723.25;5011353;28;20234;-68
2022/09/29 08:49:47;;;;;;;12.47;10.73;;;;;;;11.82;100.00;98728.41;5009960;28;20344;-69
2022/09/29 08:52:20;;;;;;;12.47;10.90;;;;;;;11.97;100.00;98728.94;4999854;28;20295;-69
2022/09/29 08:54:47;;;;;;;16.33;11.03;;;;;;;11.78;100.00;98730.41;5007954;28;20265;-69
2022/09/29 08:57:18;;;;;;;15.40;11.97;;;;;;;11.49;100.00;98723.28;5010941;28;20187;-71
2022/09/29 09:00:02;;;;;;;12.00;10.70;;;;;;;11.41;100.00;98725.66;5018209;28;20648;-67
2022/09/29 09:02:30;;;;;;;18.87;11.93;;;;;;;11.59;100.00;98721.59;4984200;28;20608;-71
2022/09/29 09:05:06;;;;;;;17.87;12.93;;;;;;;11.57;100.00;98722.66;5007748;28;20179;-69
2022/09/29 09:07:47;;;;;;;15.63;11.60;;;;;;;11.28;100.00;98724.06;5008467;28;20197;-68
2022/09/29 09:10:32;;;;;;;13.60;11.73;;;;;;;11.19;100.00;98721.41;5011644;28;20194;-67
2022/09/29 09:13:38;;;;;;;14.20;10.67;;;;;;;11.83;100.00;98727.47;5021901;28;20556;-68
2022/09/29 09:16:24;;;;;;;15.93;10.73;;;;;;;13.10;95.89;98727.19;5004855;28;20638;-70
2022/09/29 09:19:08;;;;;;;13.33;10.70;;;;;;;12.69;97.67;98727.22;5011081;28;20194;-68
2022/09/29 09:21:51;;;;;;;13.67;10.87;;;;;;;13.16;94.47;98731.81;5010605;28;20230;-68
2022/09/29 09:24:28;;;;;;;16.30;10.63;;;;;;;13.38;92.62;98741.13;5012848;28;20183;-67
2022/09/29 09:26:55;;;;;;;13.90;10.40;;;;;;;13.91;88.46;98741.66;5012521;28;20187;-65
2022/09/29 09:29:36;;;;;;;13.63;10.57;;;;;;;13.92;88.19;98738.94;5027999;28;20268;-66
2022/09/29 09:32:20;;;;;;;12.13;9.57;;;;;;;15.21;81.34;98737.47;5017011;28;20238;-63
2022/09/29 09:34:59;;;;;;;10.67;9.43;;;;;;;15.52;73.89;98734.50;5003524;28;20202;-62
2022/09/29 09:37:30;;;;;;;11.73;9.10;;;;;;;15.59;72.60;98738.97;5022877;28;20186;-67
2022/09/29 09:40:03;;;;;;;12.77;8.97;;;;;;;14.25;76.49;98734.25;5017558;28;20660;-66
2022/09/29 09:42:38;;;;;;;13.93;9.87;;;;;;;14.17;79.78;98742.69;4991279;28;20234;-68
2022/09/29 09:45:12;;;;;;;11.17;9.03;;;;;;;14.71;76.44;98742.13;5025446;28;20237;-66
2022/09/29 09:47:41;;;;;;;10.83;8.47;;;;;;;15.03;75.01;98734.88;5009462;28;20284;-68
2022/09/29 09:50:15;;;;;;;10.73;8.53;;;;;;;15.24;75.83;98729.41;5002221;28;20648;-66
2022/09/29 09:52:48;;;;;;;13.53;9.27;;;;;;;15.63;69.53;98734.31;5010688;28;20183;-64
2022/09/29 09:55:19;;;;;;;9.37;8.37;;;;;;;15.00;73.46;98741.16;5012537;28;20218;-64
2022/09/29 09:58:03;;;;;;;10.43;8.77;;;;;;;15.14;75.68;98742.41;5011083;28;20187;-65
2022/09/29 10:00:46;;;;;;;10.43;8.53;;;;;;;14.40;79.48;98746.69;5006441;28;20225;-66
2022/09/29 10:03:13;;;;;;;15.37;9.27;;;;;;;14.35;80.41;98747.94;5009406;28;20733;-68
2022/09/29 10:05:41;;;;;;;11.93;9.10;;;;;;;14.14;83.47;98755.06;5013167;28;20174;-66
2022/09/29 10:08:26;;;;;;;12.63;9.87;;;;;;;15.11;79.53;98740.13;5009336;28;20195;-65
2022/09/29 10:10:52;;;;;;;13.90;9.37;;;;;;;14.61;76.88;98749.91;5007171;28;20231;-66
2022/09/29 10:13:18;;;;;;;12.30;9.77;;;;;;;14.38;82.26;98752.03;5014393;28;20306;-68
2022/09/29 10:15:53;;;;;;;12.07;9.27;;;;;;;13.27;86.20;98757.53;5011017;28;20261;-67
2022/09/29 10:18:28;;;;;;;11.90;9.00;;;;;;;13.90;86.08;98753.75;5010245;28;20195;-66
2022/09/29 10:20:53;;;;;;;10.37;9.30;;;;;;;13.27;90.63;98757.53;5003413;28;20763;-66
2022/09/29 10:23:32;;;;;;;14.90;9.93;;;;;;;13.35;90.56;98757.69;5021429;28;20270;-69
2022/09/29 10:26:15;;;;;;;17.60;11.43;;;;;;;13.96;91.26;98757.56;5011210;28;20186;-71
2022/09/29 10:28:50;;;;;;;11.57;10.00;;;;;;;14.60;88.49;98755.19;5010613;28;20276;-71
2022/09/29 10:31:25;;;;;;;10.40;9.30;;;;;;;14.75;79.77;98759.00;5003989;28;20701;-67
2022/09/29 10:34:14;;;;;;;13.87;9.70;;;;;;;14.35;81.47;98755.72;5013533;28;20213;-67
2022/09/29 10:37:24;;;;;;;10.93;9.57;;;;;;;14.22;82.57;98752.63;5019289;28;20170;-66
2022/09/29 10:40:00;;;;;;;15.87;10.50;;;;;;;14.84;82.56;98758.13;4982932;28;20198;-63
2022/09/29 10:42:33;;;;;;;12.50;11.13;;;;;;;14.43;86.77;98762.75;4991758;28;20234;-63
2022/09/29 10:45:14;;;;;;;15.07;10.37;;;;;;;14.94;84.80;98758.06;5000602;28;20384;-67
2022/09/29 10:47:41;;;;;;;12.00;10.77;;;;;;;15.09;81.71;98768.75;5005832;28;20276;-65
2022/09/29 10:50:17;;;;;;;16.13;10.47;;;;;;;14.45;81.69;98766.03;4974138;28;20207;-64
2022/09/29 10:52:57;;;;;;;14.17;9.90;;;;;;;14.19;86.40;98761.47;4974634;28;20234;-62
2022/09/29 10:55:28;;;;;;;12.70;10.87;;;;;;;13.78;87.54;98762.59;4980247;28;20188;-64
2022/09/29 10:57:57;;;;;;;12.13;9.60;;;;;;;13.74;89.86;98753.50;5003919;28;20195;-65
2022/09/29 11:00:27;;;;;;;15.90;11.07;;;;;;;13.67;93.83;98761.81;4972407;28;20421;-65
2022/09/29 11:03:03;;;;;;;16.47;10.70;;;;;;;14.19;89.03;98768.44;4977027;28;20605;-66
2022/09/29 11:05:28;;;;;;;17.73;11.53;;;;;;;14.46;85.58;98761.66;4988341;28;20191;-65
2022/09/29 11:07:54;;;;;;;16.40;12.20;;;;;;;14.84;85.50;98765.88;4990450;28;20323;-68
2022/09/29 11:10:37;;;;;;;13.60;12.13;;;;;;;14.33;87.56;98761.97;4963499;28;20263;-66
2022/09/29 11:13:23;;;;;;;16.03;11.73;;;;;;;13.90;91.42;98758.94;4972729;28;20188;-65
2022/09/29 11:15:49;;;;;;;14.23;12.13;;;;;;;13.90;94.07;98760.72;4972335;28;20218;-64
2022/09/29 11:18:21;;;;;;;14.70;13.20;;;;;;;14.14;93.82;98763.66;5021215;28;20285;-65
2022/09/29 11:20:57;;;;;;;14.07;10.47;;;;;;;14.05;91.01;98756.72;5004718;28;20228;-63
2022/09/29 11:23:37;;;;;;;12.80;10.87;;;;;;;14.27;95.04;98762.53;5011606;28;20344;-66
2022/09/29 11:26:13;;;;;;;13.47;10.77;;;;;;;14.09;92.40;98770.19;5009089;28;20186;-65
2022/09/29 11:28:55;;;;;;;15.53;11.73;;;;;;;13.84;96.34;98764.66;5010313;28;20201;-65
2022/09/29 11:31:26;;;;;;;14.67;10.73;;;;;;;14.29;96.06;98769.22;4969778;28;20242;-64
2022/09/29 11:34:30;;;;;;;11.50;10.30;;;;;;;13.90;93.62;98769.25;5000327;28;20210;-65
2022/09/29 11:37:14;;;;;;;10.67;9.60;;;;;;;13.63;99.08;98772.53;5011504;28;20676;-67
2022/09/29 11:39:46;;;;;;;10.73;9.00;;;;;;;13.63;98.97;98775.97;5011287;28;20178;-68
2022/09/29 11:42:48;;;;;;;13.70;10.17;;;;;;;13.11;100.00;98780.47;5009987;28;20707;-62
2022/09/29 11:45:17;;;;;;;10.47;9.37;;;;;;;13.37;100.00;98773.91;5004851;28;20217;-64